Time;durP1;ratioP1;P1;durP2;ratioP2;P2;SDS_P1;SDS_P2;PMS_P1;PMS_P2;Temp;Humidity;BMP_temperature;BMP_pressure;BME280_temperature;BME280_humidity;BME280_pressure;Samples;Min_cycle;Max_cycle;Signal;HPM_P1;HPM_P2
2024/04/14 00:00:16;;;;;;;6.72;2.40;;;;;;;;;;5388528;26;20064;-52
2024/04/14 00:02:41;;;;;;;5.03;2.33;;;;;;;;;;5419762;26;20001;-52
2024/04/14 00:05:06;;;;;;;8.18;2.38;;;;;;;;;;5388399;26;19991;-53
2024/04/14 00:07:32;;;;;;;6.22;2.00;;;;;;;;;;5432398;26;20309;-55
2024/04/14 00:09:57;;;;;;;6.22;2.28;;;;;;;;;;5419650;26;19999;-53
2024/04/14 00:12:22;;;;;;;6.53;2.03;;;;;;;;;;5419602;26;19999;-56
2024/04/14 00:14:47;;;;;;;5.53;1.70;;;;;;;;;;5444702;26;20330;-52
2024/04/14 00:17:13;;;;;;;5.82;1.90;;;;;;;;;;5446660;26;20404;-52
2024/04/14 00:19:38;;;;;;;5.72;1.70;;;;;;;;;;5419920;26;19987;-53
2024/04/14 00:22:03;;;;;;;3.58;1.75;;;;;;;;;;5420205;26;20073;-53
2024/04/14 00:24:28;;;;;;;6.05;2.30;;;;;;;;;;5388385;26;20008;-54
2024/04/14 00:26:53;;;;;;;4.85;1.80;;;;;;;;;;5423151;26;20392;-54
2024/04/14 00:29:19;;;;;;;6.05;1.90;;;;;;;;;;5455146;26;19999;-57
2024/04/14 00:31:44;;;;;;;7.70;1.70;;;;;;;;;;5455738;26;20068;-53
2024/04/14 00:34:10;;;;;;;4.03;1.83;;;;;;;;;;5455572;26;19990;-52
2024/04/14 00:36:35;;;;;;;2.90;1.42;;;;;;;;;;5455546;26;20009;-53
2024/04/14 00:39:01;;;;;;;4.78;1.95;;;;;;;;;;5419544;26;20000;-53
2024/04/14 00:41:26;;;;;;;4.70;1.70;;;;;;;;;;5419861;26;20064;-55
2024/04/14 00:43:51;;;;;;;6.35;2.13;;;;;;;;;;5419177;26;19992;-52
2024/04/14 00:46:17;;;;;;;6.22;1.80;;;;;;;;;;5419165;26;20037;-52
2024/04/14 00:48:42;;;;;;;4.18;1.60;;;;;;;;;;5420720;26;20004;-55
2024/04/14 00:51:07;;;;;;;4.82;1.58;;;;;;;;;;5419163;26;20002;-55
2024/04/14 00:53:33;;;;;;;4.78;1.80;;;;;;;;;;5419187;26;20113;-53
2024/04/14 00:55:58;;;;;;;6.03;2.03;;;;;;;;;;5419097;26;20305;-53
2024/04/14 00:58:24;;;;;;;5.63;1.60;;;;;;;;;;5420283;26;20023;-53
2024/04/14 01:00:49;;;;;;;8.68;1.67;;;;;;;;;;5418907;26;20456;-52
2024/04/14 01:03:15;;;;;;;6.13;1.60;;;;;;;;;;5418590;26;19999;-53
2024/04/14 01:05:40;;;;;;;4.18;1.60;;;;;;;;;;5387738;26;20035;-52
2024/04/14 01:08:06;;;;;;;5.40;1.70;;;;;;;;;;5438405;26;19995;-54
2024/04/14 01:10:32;;;;;;;5.72;1.55;;;;;;;;;;5455845;26;20028;-54
2024/04/14 01:12:58;;;;;;;3.40;1.38;;;;;;;;;;5458447;26;19999;-52
2024/04/14 01:15:23;;;;;;;6.38;1.63;;;;;;;;;;5458609;26;20005;-55
2024/04/14 01:17:48;;;;;;;5.95;1.83;;;;;;;;;;5442763;26;20295;-51
2024/04/14 01:20:14;;;;;;;4.22;1.42;;;;;;;;;;5422057;26;20091;-55
2024/04/14 01:22:39;;;;;;;6.97;1.63;;;;;;;;;;5412239;26;19998;-52
2024/04/14 01:25:06;;;;;;;4.82;1.67;;;;;;;;;;5446594;26;20000;-55
2024/04/14 01:27:31;;;;;;;5.90;1.67;;;;;;;;;;5432679;26;20014;-53
2024/04/14 01:29:56;;;;;;;3.50;1.65;;;;;;;;;;5457909;26;20387;-55
2024/04/14 01:32:22;;;;;;;6.10;1.55;;;;;;;;;;5458122;26;20410;-51
2024/04/14 01:34:47;;;;;;;6.15;1.40;;;;;;;;;;5426430;26;19991;-54
2024/04/14 01:37:12;;;;;;;6.88;1.65;;;;;;;;;;5419919;26;20000;-52
2024/04/14 01:39:38;;;;;;;3.83;1.50;;;;;;;;;;5390697;26;20066;-52
2024/04/14 01:42:03;;;;;;;5.85;2.13;;;;;;;;;;5421857;26;20031;-55
2024/04/14 01:44:28;;;;;;;7.47;1.52;;;;;;;;;;5445356;26;20010;-53
2024/04/14 01:46:54;;;;;;;7.47;1.73;;;;;;;;;;5457295;26;20007;-52
2024/04/14 01:49:19;;;;;;;5.63;1.60;;;;;;;;;;5457375;26;20010;-55
2024/04/14 01:51:44;;;;;;;5.43;1.77;;;;;;;;;;5440306;26;20008;-52
2024/04/14 01:54:10;;;;;;;9.90;1.95;;;;;;;;;;5438920;26;20072;-53
2024/04/14 01:56:35;;;;;;;4.97;1.48;;;;;;;;;;5457439;26;20027;-52
2024/04/14 01:59:02;;;;;;;4.55;1.60;;;;;;;;;;5457497;26;19999;-54
2024/04/14 02:01:27;;;;;;;4.50;1.50;;;;;;;;;;5457152;26;20292;-53
2024/04/14 02:03:52;;;;;;;6.25;2.10;;;;;;;;;;5445272;26;20168;-52
2024/04/14 02:06:18;;;;;;;5.30;1.60;;;;;;;;;;5421244;26;20092;-53
2024/04/14 02:08:43;;;;;;;6.35;1.70;;;;;;;;;;5389860;26;20011;-53
2024/04/14 02:11:08;;;;;;;5.38;1.85;;;;;;;;;;5421464;26;20000;-52
2024/04/14 02:13:35;;;;;;;4.05;1.45;;;;;;;;;;5420961;26;20000;-51
2024/04/14 02:16:00;;;;;;;5.85;1.70;;;;;;;;;;5432325;26;19999;-51
2024/04/14 02:18:25;;;;;;;7.43;1.77;;;;;;;;;;5457723;26;19995;-51
2024/04/14 02:20:50;;;;;;;4.93;1.90;;;;;;;;;;5424136;26;20455;-55
2024/04/14 02:23:16;;;;;;;5.55;1.60;;;;;;;;;;5421043;26;19991;-55
2024/04/14 02:25:41;;;;;;;7.13;2.08;;;;;;;;;;5421150;26;20010;-51
2024/04/14 02:28:06;;;;;;;6.97;1.88;;;;;;;;;;5433014;26;20010;-52
2024/04/14 02:30:31;;;;;;;6.43;2.15;;;;;;;;;;5457252;26;19991;-53
2024/04/14 02:32:57;;;;;;;5.75;1.83;;;;;;;;;;5425694;26;20010;-55
2024/04/14 02:35:22;;;;;;;9.68;2.17;;;;;;;;;;5456981;26;20060;-52
2024/04/14 02:37:48;;;;;;;6.90;1.90;;;;;;;;;;5457119;26;20049;-51
2024/04/14 02:40:13;;;;;;;9.10;1.83;;;;;;;;;;5456338;26;20011;-51
2024/04/14 02:42:39;;;;;;;4.65;1.70;;;;;;;;;;5456358;26;20068;-51
2024/04/14 02:45:04;;;;;;;5.70;2.22;;;;;;;;;;5457044;26;19990;-52
2024/04/14 02:47:29;;;;;;;4.88;1.60;;;;;;;;;;5444314;26;20061;-53
2024/04/14 02:49:55;;;;;;;7.35;1.90;;;;;;;;;;5420929;26;19995;-52
2024/04/14 02:52:20;;;;;;;7.75;2.05;;;;;;;;;;5437539;26;20076;-52
2024/04/14 02:54:45;;;;;;;8.45;2.05;;;;;;;;;;5456699;26;19991;-53
2024/04/14 02:57:11;;;;;;;6.60;2.42;;;;;;;;;;5456850;26;20076;-55
2024/04/14 02:59:37;;;;;;;6.95;2.10;;;;;;;;;;5456814;26;20031;-53
2024/04/14 03:02:04;;;;;;;8.48;2.20;;;;;;;;;;5422362;21;20011;-87
2024/04/14 03:04:30;;;;;;;8.07;2.17;;;;;;;;;;5385364;26;19992;-87
2024/04/14 03:06:56;;;;;;;7.20;2.17;;;;;;;;;;5385090;26;20000;-87
2024/04/14 03:09:23;;;;;;;10.82;2.35;;;;;;;;;;5385276;26;20003;-88
2024/04/14 03:11:49;;;;;;;7.07;2.15;;;;;;;;;;5383410;26;20000;-87
2024/04/14 03:14:17;;;;;;;8.50;2.00;;;;;;;;;;5385791;26;19992;-87
2024/04/14 03:16:43;;;;;;;6.85;2.00;;;;;;;;;;5385496;26;20024;-87
2024/04/14 03:19:10;;;;;;;7.85;1.90;;;;;;;;;;5383080;26;20325;-87
2024/04/14 03:21:37;;;;;;;8.48;2.40;;;;;;;;;;5383316;26;20011;-87
2024/04/14 03:24:03;;;;;;;10.73;2.38;;;;;;;;;;5385956;26;20011;-87
2024/04/14 03:26:29;;;;;;;8.27;2.30;;;;;;;;;;5383876;26;20011;-88
2024/04/14 03:28:56;;;;;;;7.40;2.05;;;;;;;;;;5383519;26;20058;-87
2024/04/14 03:31:21;;;;;;;5.70;2.30;;;;;;;;;;5385704;26;20157;-87
2024/04/14 03:33:48;;;;;;;9.18;2.33;;;;;;;;;;5385201;26;19999;-87
2024/04/14 03:36:14;;;;;;;9.50;2.20;;;;;;;;;;5386431;26;20002;-87
2024/04/14 03:38:41;;;;;;;6.90;2.03;;;;;;;;;;5384012;26;20006;-87
2024/04/14 03:41:07;;;;;;;5.60;2.20;;;;;;;;;;5384175;26;20004;-87
2024/04/14 03:43:34;;;;;;;7.55;2.67;;;;;;;;;;5383929;26;20003;-87
2024/04/14 03:46:00;;;;;;;7.30;2.15;;;;;;;;;;5385863;26;19992;-87
2024/04/14 03:48:26;;;;;;;8.52;2.47;;;;;;;;;;5383987;26;19996;-87
2024/04/14 03:50:53;;;;;;;6.95;2.38;;;;;;;;;;5383960;26;20008;-87
2024/04/14 03:53:19;;;;;;;8.75;2.30;;;;;;;;;;5385613;26;20023;-87
2024/04/14 03:55:50;;;;;;;10.10;2.45;;;;;;;;;;5384055;26;20344;-88
2024/04/14 03:58:17;;;;;;;7.88;2.70;;;;;;;;;;5386211;26;19996;-87
2024/04/14 04:00:42;;;;;;;7.55;2.42;;;;;;;;;;5409959;21;20510;-52
2024/04/14 04:03:08;;;;;;;7.57;2.45;;;;;;;;;;5456733;26;20002;-52
2024/04/14 04:05:33;;;;;;;11.40;2.53;;;;;;;;;;5456673;26;20006;-51
2024/04/14 04:07:58;;;;;;;8.70;2.47;;;;;;;;;;5456464;26;20014;-53
2024/04/14 04:10:23;;;;;;;8.30;2.58;;;;;;;;;;5456477;26;20070;-52
2024/04/14 04:12:49;;;;;;;9.70;2.30;;;;;;;;;;5436265;26;20019;-51
2024/04/14 04:15:14;;;;;;;8.85;2.40;;;;;;;;;;5420534;26;19999;-52
2024/04/14 04:17:40;;;;;;;8.57;2.28;;;;;;;;;;5389069;26;20010;-52
2024/04/14 04:20:05;;;;;;;7.85;2.50;;;;;;;;;;5420471;26;19992;-52
2024/04/14 04:22:30;;;;;;;8.52;2.95;;;;;;;;;;5420628;26;20415;-51
2024/04/14 04:24:55;;;;;;;9.77;2.80;;;;;;;;;;5420598;26;20069;-51
2024/04/14 04:27:21;;;;;;;12.77;3.55;;;;;;;;;;5420396;26;20149;-52
2024/04/14 04:29:46;;;;;;;7.40;2.40;;;;;;;;;;5420699;26;20002;-52
2024/04/14 04:32:16;;;;;;;8.57;2.80;;;;;;;;;;5430313;26;20014;-54
2024/04/14 04:34:41;;;;;;;12.90;3.58;;;;;;;;;;5455696;26;20048;-51
2024/04/14 04:37:06;;;;;;;9.93;2.92;;;;;;;;;;5456177;26;19991;-52
2024/04/14 04:39:32;;;;;;;10.70;2.83;;;;;;;;;;5456135;26;20003;-52
2024/04/14 04:41:57;;;;;;;10.10;3.15;;;;;;;;;;5449288;26;19995;-55
2024/04/14 04:44:22;;;;;;;9.10;2.53;;;;;;;;;;5418903;26;19991;-51
2024/04/14 04:46:47;;;;;;;9.95;3.33;;;;;;;;;;5419250;26;19991;-55
2024/04/14 04:49:12;;;;;;;16.02;3.40;;;;;;;;;;5388579;26;20007;-51
2024/04/14 04:51:38;;;;;;;10.88;3.50;;;;;;;;;;5420972;26;20311;-52
2024/04/14 04:54:05;;;;;;;11.00;3.25;;;;;;;;;;5455835;26;19991;-53
2024/04/14 04:56:30;;;;;;;10.52;3.15;;;;;;;;;;5455971;26;20469;-52
2024/04/14 04:58:55;;;;;;;15.63;3.60;;;;;;;;;;5434285;26;20008;-53
2024/04/14 05:01:20;;;;;;;14.80;3.60;;;;;;;;;;5420105;26;20089;-52
2024/04/14 05:03:46;;;;;;;11.38;3.22;;;;;;;;;;5451682;26;20441;-52
2024/04/14 05:06:11;;;;;;;15.77;4.13;;;;;;;;;;5423968;26;20001;-51
2024/04/14 05:08:36;;;;;;;13.85;3.20;;;;;;;;;;5423843;26;20396;-52
2024/04/14 05:11:01;;;;;;;14.07;3.65;;;;;;;;;;5455380;26;20426;-51
2024/04/14 05:13:27;;;;;;;12.40;3.40;;;;;;;;;;5428546;26;20000;-51
2024/04/14 05:15:52;;;;;;;8.45;3.05;;;;;;;;;;5419951;26;20019;-52
2024/04/14 05:18:18;;;;;;;13.55;3.10;;;;;;;;;;5419598;26;19996;-51
2024/04/14 05:20:43;;;;;;;13.70;3.83;;;;;;;;;;5419815;26;20002;-52
2024/04/14 05:23:08;;;;;;;13.40;3.63;;;;;;;;;;5442215;26;19998;-52
2024/04/14 05:25:34;;;;;;;11.43;3.20;;;;;;;;;;5453168;26;20016;-54
2024/04/14 05:27:59;;;;;;;13.90;4.32;;;;;;;;;;5419287;26;20304;-52
2024/04/14 05:30:25;;;;;;;12.65;3.60;;;;;;;;;;5419531;26;20000;-51
2024/04/14 05:32:53;;;;;;;13.32;4.15;;;;;;;;;;5436629;26;19994;-51
2024/04/14 05:35:18;;;;;;;11.02;3.50;;;;;;;;;;5455497;26;20005;-51
2024/04/14 05:37:44;;;;;;;11.63;3.60;;;;;;;;;;5454874;26;20427;-51
2024/04/14 05:40:09;;;;;;;9.90;3.38;;;;;;;;;;5454985;26;20067;-51
2024/04/14 05:42:34;;;;;;;12.35;3.78;;;;;;;;;;5441533;26;20011;-51
2024/04/14 05:45:00;;;;;;;13.20;3.85;;;;;;;;;;5447606;26;20092;-52
2024/04/14 05:47:25;;;;;;;13.50;4.45;;;;;;;;;;5454400;26;20007;-51
2024/04/14 05:49:51;;;;;;;17.20;4.90;;;;;;;;;;5454755;26;19990;-55
2024/04/14 05:52:16;;;;;;;11.63;3.85;;;;;;;;;;5454883;26;20007;-52
2024/04/14 05:54:41;;;;;;;15.95;4.55;;;;;;;;;;5453019;26;19999;-53
2024/04/14 05:57:06;;;;;;;14.80;3.80;;;;;;;;;;5455969;26;20395;-53
2024/04/14 05:59:32;;;;;;;14.27;4.25;;;;;;;;;;5458888;26;20009;-51
2024/04/14 06:01:57;;;;;;;18.35;5.22;;;;;;;;;;5459073;26;20009;-51
2024/04/14 06:04:22;;;;;;;14.70;4.20;;;;;;;;;;5411121;26;20358;-51
2024/04/14 06:06:50;;;;;;;17.35;4.30;;;;;;;;;;5422682;26;20396;-52
2024/04/14 06:09:16;;;;;;;16.92;4.47;;;;;;;;;;5422551;26;20396;-51
2024/04/14 06:11:41;;;;;;;12.57;4.07;;;;;;;;;;5422391;26;20008;-52
2024/04/14 06:14:06;;;;;;;12.48;4.40;;;;;;;;;;5433222;26;20009;-52
2024/04/14 06:16:31;;;;;;;10.57;3.70;;;;;;;;;;5458182;26;19994;-53
2024/04/14 06:18:56;;;;;;;14.73;4.40;;;;;;;;;;5458423;26;20006;-55
2024/04/14 06:21:22;;;;;;;14.98;4.53;;;;;;;;;;5455390;26;19994;-54
2024/04/14 06:23:47;;;;;;;15.30;4.38;;;;;;;;;;5428166;26;20273;-53
2024/04/14 06:26:12;;;;;;;12.63;4.15;;;;;;;;;;5458330;26;19991;-51
2024/04/14 06:28:38;;;;;;;14.05;4.43;;;;;;;;;;5458189;26;20002;-52
2024/04/14 06:31:03;;;;;;;11.52;4.05;;;;;;;;;;5458507;26;19999;-53
2024/04/14 06:33:28;;;;;;;13.98;4.32;;;;;;;;;;5457127;26;19996;-51
2024/04/14 06:35:54;;;;;;;12.98;4.55;;;;;;;;;;5457978;26;20002;-52
2024/04/14 06:38:20;;;;;;;16.90;5.72;;;;;;;;;;5426100;26;20006;-51
2024/04/14 06:40:45;;;;;;;13.48;4.30;;;;;;;;;;5457971;26;19990;-51
2024/04/14 06:43:12;;;;;;;12.25;3.90;;;;;;;;;;5457712;26;20002;-51
2024/04/14 06:45:37;;;;;;;16.13;4.75;;;;;;;;;;5425354;26;20297;-52
2024/04/14 06:48:02;;;;;;;17.77;5.13;;;;;;;;;;5421956;26;19991;-53
2024/04/14 06:50:27;;;;;;;14.50;4.10;;;;;;;;;;5422064;26;20443;-51
2024/04/14 06:52:53;;;;;;;13.82;4.47;;;;;;;;;;5422204;26;19996;-51
2024/04/14 06:55:18;;;;;;;12.48;4.25;;;;;;;;;;5421616;26;20478;-52
2024/04/14 06:57:44;;;;;;;15.48;4.50;;;;;;;;;;5421612;26;20061;-51
2024/04/14 07:00:10;;;;;;;14.15;4.57;;;;;;;;;;5421845;26;19996;-53
2024/04/14 07:02:35;;;;;;;17.65;4.70;;;;;;;;;;5421954;26;20014;-54
2024/04/14 07:05:00;;;;;;;15.40;4.50;;;;;;;;;;5421748;26;20316;-53
2024/04/14 07:07:26;;;;;;;13.93;4.63;;;;;;;;;;5421079;26;20431;-52
2024/04/14 07:09:51;;;;;;;15.02;4.57;;;;;;;;;;5420885;26;20000;-53
2024/04/14 07:12:16;;;;;;;13.15;4.20;;;;;;;;;;5446030;26;19995;-51
2024/04/14 07:14:41;;;;;;;14.90;4.70;;;;;;;;;;5421558;26;19995;-53
2024/04/14 07:17:07;;;;;;;18.75;4.72;;;;;;;;;;5421395;26;20412;-52
2024/04/14 07:19:32;;;;;;;15.00;4.47;;;;;;;;;;5421547;26;20004;-52
2024/04/14 07:21:57;;;;;;;17.75;4.50;;;;;;;;;;5422954;26;19992;-55
2024/04/14 07:24:22;;;;;;;13.23;4.47;;;;;;;;;;5457281;26;20061;-51
2024/04/14 07:26:47;;;;;;;14.50;4.53;;;;;;;;;;5457516;26;20003;-53
2024/04/14 07:29:14;;;;;;;15.25;4.70;;;;;;;;;;5457316;26;20383;-51
2024/04/14 07:31:39;;;;;;;15.48;4.53;;;;;;;;;;5429199;26;20004;-51
2024/04/14 07:34:04;;;;;;;14.80;4.28;;;;;;;;;;5453196;26;20477;-53
2024/04/14 07:36:29;;;;;;;11.55;4.15;;;;;;;;;;5456912;26;20068;-52
2024/04/14 07:38:54;;;;;;;12.88;3.83;;;;;;;;;;5456760;26;20014;-54
2024/04/14 07:41:20;;;;;;;13.85;3.80;;;;;;;;;;5456925;26;20059;-51
2024/04/14 07:43:45;;;;;;;14.55;4.20;;;;;;;;;;5453409;26;20003;-51
2024/04/14 07:46:10;;;;;;;14.32;4.70;;;;;;;;;;5457117;26;20010;-52
2024/04/14 07:48:36;;;;;;;13.82;3.92;;;;;;;;;;5456621;26;19990;-52
2024/04/14 07:51:01;;;;;;;12.32;4.60;;;;;;;;;;5456687;26;20005;-52
2024/04/14 07:53:26;;;;;;;12.80;3.75;;;;;;;;;;5453852;26;20379;-53
2024/04/14 07:55:54;;;;;;;13.35;4.22;;;;;;;;;;5419389;26;20014;-52
2024/04/14 07:58:19;;;;;;;12.18;3.88;;;;;;;;;;5427805;26;20011;-52
2024/04/14 08:00:45;;;;;;;16.13;4.20;;;;;;;;;;5456887;26;19991;-54
2024/04/14 08:03:10;;;;;;;14.63;4.35;;;;;;;;;;5457034;26;19995;-51
2024/04/14 08:05:35;;;;;;;12.93;4.53;;;;;;;;;;5422532;26;20007;-52
2024/04/14 08:08:00;;;;;;;14.27;4.55;;;;;;;;;;5420893;26;19991;-51
2024/04/14 08:10:26;;;;;;;19.70;4.72;;;;;;;;;;5420965;26;20002;-52
2024/04/14 08:12:51;;;;;;;17.08;4.97;;;;;;;;;;5421091;26;20003;-53
2024/04/14 08:15:16;;;;;;;17.88;7.43;;;;;;;;;;5420803;26;19995;-52
2024/04/14 08:17:41;;;;;;;15.70;4.47;;;;;;;;;;5453062;26;20403;-52
2024/04/14 08:20:07;;;;;;;15.38;4.38;;;;;;;;;;5455974;26;20003;-52
2024/04/14 08:22:32;;;;;;;14.05;4.30;;;;;;;;;;5456298;26;20031;-52
2024/04/14 08:24:57;;;;;;;13.82;4.32;;;;;;;;;;5455869;26;20411;-51
2024/04/14 08:27:22;;;;;;;15.65;4.43;;;;;;;;;;5429586;26;20011;-53
2024/04/14 08:29:47;;;;;;;13.25;4.40;;;;;;;;;;5420405;26;19999;-51
2024/04/14 08:32:13;;;;;;;17.42;4.93;;;;;;;;;;5451562;26;19995;-52
2024/04/14 08:34:38;;;;;;;19.70;5.03;;;;;;;;;;5456424;26;19995;-53
2024/04/14 08:37:03;;;;;;;16.38;4.50;;;;;;;;;;5456007;26;20002;-52
2024/04/14 08:39:28;;;;;;;15.27;4.35;;;;;;;;;;5430103;26;19996;-52
2024/04/14 08:41:56;;;;;;;11.88;3.90;;;;;;;;;;5455945;26;20003;-52
2024/04/14 08:44:21;;;;;;;13.57;3.65;;;;;;;;;;5455863;26;20501;-53
2024/04/14 08:46:47;;;;;;;14.35;4.63;;;;;;;;;;5451688;26;19995;-52
2024/04/14 08:49:13;;;;;;;14.07;4.00;;;;;;;;;;5420590;26;19999;-51
2024/04/14 08:51:38;;;;;;;13.10;4.30;;;;;;;;;;5419692;26;20010;-52
2024/04/14 08:54:03;;;;;;;11.27;3.95;;;;;;;;;;5419270;26;20008;-51
2024/04/14 08:56:30;;;;;;;12.68;3.97;;;;;;;;;;5418775;26;19999;-55
2024/04/14 08:58:57;;;;;;;12.68;3.95;;;;;;;;;;5424617;26;20002;-52
2024/04/14 09:01:22;;;;;;;13.65;3.80;;;;;;;;;;5434453;26;20008;-53
2024/04/14 09:03:48;;;;;;;10.05;3.50;;;;;;;;;;5420008;26;20004;-52
2024/04/14 09:06:14;;;;;;;13.85;3.45;;;;;;;;;;5388619;26;20024;-51
2024/04/14 09:08:39;;;;;;;10.27;3.40;;;;;;;;;;5419695;26;20006;-51
2024/04/14 09:11:05;;;;;;;12.63;3.42;;;;;;;;;;5419914;26;19992;-52
2024/04/14 09:13:31;;;;;;;8.00;3.10;;;;;;;;;;5442219;26;19999;-52
2024/04/14 09:15:56;;;;;;;12.43;2.97;;;;;;;;;;5455820;26;19999;-51
2024/04/14 09:18:22;;;;;;;10.73;3.53;;;;;;;;;;5455441;26;20018;-51
2024/04/14 09:20:48;;;;;;;8.18;2.50;;;;;;;;;;5455595;26;20285;-51
2024/04/14 09:23:13;;;;;;;13.15;3.35;;;;;;;;;;5455689;26;20331;-52
2024/04/14 09:25:38;;;;;;;13.13;2.95;;;;;;;;;;5429118;26;20014;-52
2024/04/14 09:28:06;;;;;;;11.00;2.58;;;;;;;;;;5441342;26;20010;-52
2024/04/14 09:30:32;;;;;;;11.48;2.50;;;;;;;;;;5455323;26;19995;-52
2024/04/14 09:32:57;;;;;;;10.90;2.38;;;;;;;;;;5458392;26;20005;-52
2024/04/14 09:35:22;;;;;;;8.65;2.85;;;;;;;;;;5458552;26;20006;-52
2024/04/14 09:37:48;;;;;;;9.95;2.60;;;;;;;;;;5426619;26;20367;-57
2024/04/14 09:40:16;;;;;;;11.82;3.15;;;;;;;;;;5422803;26;20031;-54
2024/04/14 09:42:43;;;;;;;10.80;3.15;;;;;;;;;;5422934;26;20375;-55
2024/04/14 09:45:08;;;;;;;9.65;3.00;;;;;;;;;;5448859;26;20013;-53
2024/04/14 09:47:36;;;;;;;10.45;2.67;;;;;;;;;;5458799;26;20299;-53
2024/04/14 09:50:01;;;;;;;6.97;1.80;;;;;;;;;;5426689;26;20006;-52
2024/04/14 09:52:28;;;;;;;7.88;2.72;;;;;;;;;;5458811;26;19995;-52
2024/04/14 09:54:54;;;;;;;9.13;2.30;;;;;;;;;;5436065;26;20011;-52
2024/04/14 09:57:21;;;;;;;9.45;2.40;;;;;;;;;;5421573;26;20010;-52
2024/04/14 09:59:46;;;;;;;9.32;2.28;;;;;;;;;;5422925;26;19999;-52
2024/04/14 10:02:15;;;;;;;10.20;2.67;;;;;;;;;;5422418;26;20428;-53
2024/04/14 10:04:42;;;;;;;9.55;2.65;;;;;;;;;;5438685;26;20006;-52
2024/04/14 10:07:07;;;;;;;11.52;2.70;;;;;;;;;;5458208;26;20030;-52
2024/04/14 10:09:34;;;;;;;9.50;2.40;;;;;;;;;;5458200;26;20060;-55
2024/04/14 10:12:00;;;;;;;9.75;2.00;;;;;;;;;;5458025;26;19995;-53
2024/04/14 10:14:27;;;;;;;11.18;2.15;;;;;;;;;;5458153;26;20010;-55
2024/04/14 10:16:56;;;;;;;6.43;1.90;;;;;;;;;;5437881;26;20004;-52
2024/04/14 10:19:24;;;;;;;8.20;2.50;;;;;;;;;;5422350;26;19995;-52
2024/04/14 10:21:58;;;;;;;11.43;2.25;;;;;;;;;;5425860;26;20011;-52
2024/04/14 10:24:24;;;;;;;7.80;2.33;;;;;;;;;;5458113;26;19995;-53
2024/04/14 10:26:49;;;;;;;8.98;2.55;;;;;;;;;;5426314;26;20006;-52
2024/04/14 10:29:17;;;;;;;8.43;2.08;;;;;;;;;;5436105;26;20324;-56
2024/04/14 10:31:42;;;;;;;8.80;2.58;;;;;;;;;;5421555;26;19997;-51
2024/04/14 10:34:11;;;;;;;9.27;2.00;;;;;;;;;;5422124;26;20007;-52
2024/04/14 10:36:42;;;;;;;7.22;2.13;;;;;;;;;;5421924;26;20007;-52
2024/04/14 10:39:10;;;;;;;8.75;2.05;;;;;;;;;;5421807;26;20069;-51
2024/04/14 10:41:35;;;;;;;11.35;3.38;;;;;;;;;;5427409;26;20010;-52
2024/04/14 10:44:00;;;;;;;8.50;2.75;;;;;;;;;;5421719;26;19991;-51
2024/04/14 10:46:26;;;;;;;7.78;2.60;;;;;;;;;;5390375;26;20274;-51
2024/04/14 10:48:51;;;;;;;7.45;2.03;;;;;;;;;;5421595;26;19991;-52
2024/04/14 10:51:16;;;;;;;8.55;1.92;;;;;;;;;;5422350;26;20012;-52
2024/04/14 10:53:41;;;;;;;8.10;2.22;;;;;;;;;;5422442;26;19995;-51
2024/04/14 10:56:07;;;;;;;12.15;2.80;;;;;;;;;;5421647;26;20396;-51
2024/04/14 10:58:36;;;;;;;11.05;3.22;;;;;;;;;;5421970;26;20000;-55
2024/04/14 11:01:02;;;;;;;9.25;2.38;;;;;;;;;;5421409;26;20082;-55
2024/04/14 11:03:27;;;;;;;8.65;2.40;;;;;;;;;;5422874;26;20377;-54
2024/04/14 11:05:53;;;;;;;7.18;2.40;;;;;;;;;;5435431;26;19999;-52
2024/04/14 11:08:19;;;;;;;7.15;2.17;;;;;;;;;;5444953;26;19999;-53
2024/04/14 11:10:45;;;;;;;6.68;1.80;;;;;;;;;;5458062;26;19998;-53
2024/04/14 11:13:15;;;;;;;10.35;2.30;;;;;;;;;;5424341;26;19999;-52
2024/04/14 11:15:40;;;;;;;;;;;;;;;;;;5422124;26;20006;-51
2024/04/14 11:18:07;;;;;;;8.73;2.30;;;;;;;;;;5430673;26;19924;-51
2024/04/14 11:20:32;;;;;;;9.27;2.65;;;;;;;;;;5457000;26;19995;-51
2024/04/14 11:23:01;;;;;;;7.70;2.25;;;;;;;;;;5457426;26;19991;-51
2024/04/14 11:25:26;;;;;;;6.63;2.00;;;;;;;;;;5452137;26;20068;-51
2024/04/14 11:27:52;;;;;;;10.93;2.88;;;;;;;;;;5435498;26;20011;-51
2024/04/14 11:30:17;;;;;;;9.65;2.45;;;;;;;;;;5451132;26;19992;-55
2024/04/14 11:32:43;;;;;;;9.10;2.40;;;;;;;;;;5436609;26;20362;-51
2024/04/14 11:35:09;;;;;;;8.30;2.38;;;;;;;;;;5456853;26;20018;-52
2024/04/14 11:37:35;;;;;;;7.85;2.03;;;;;;;;;;5452103;26;20000;-52
2024/04/14 11:40:00;;;;;;;7.35;2.05;;;;;;;;;;5420926;26;20296;-55
2024/04/14 11:42:26;;;;;;;10.23;3.25;;;;;;;;;;5421084;26;20014;-55
2024/04/14 11:44:51;;;;;;;5.07;1.80;;;;;;;;;;5433855;26;20365;-52
2024/04/14 11:47:17;;;;;;;9.52;2.25;;;;;;;;;;5456051;26;19991;-51
2024/04/14 11:49:43;;;;;;;7.03;2.20;;;;;;;;;;5440641;26;20035;-51
2024/04/14 11:52:08;;;;;;;9.85;2.33;;;;;;;;;;5457116;26;20003;-51
2024/04/14 11:54:33;;;;;;;9.55;2.13;;;;;;;;;;5435321;26;20000;-51
2024/04/14 11:56:58;;;;;;;7.43;2.00;;;;;;;;;;5420507;26;19987;-53
2024/04/14 11:59:24;;;;;;;7.97;2.10;;;;;;;;;;5440275;26;20006;-53
2024/04/14 12:01:49;;;;;;;6.90;2.42;;;;;;;;;;5455650;26;19990;-52
2024/04/14 12:04:14;;;;;;;9.00;2.50;;;;;;;;;;5451793;26;20014;-52
2024/04/14 12:06:39;;;;;;;6.78;2.15;;;;;;;;;;5442922;26;20027;-53
2024/04/14 12:09:04;;;;;;;7.88;2.17;;;;;;;;;;5441964;26;19995;-53
2024/04/14 12:11:30;;;;;;;6.25;1.95;;;;;;;;;;5456068;26;19991;-55
2024/04/14 12:13:55;;;;;;;6.78;2.17;;;;;;;;;;5450420;26;20005;-55
2024/04/14 12:16:21;;;;;;;6.50;2.20;;;;;;;;;;5448855;26;19998;-56
2024/04/14 12:18:46;;;;;;;7.20;1.80;;;;;;;;;;5434521;26;19992;-54
2024/04/14 12:21:11;;;;;;;10.73;2.45;;;;;;;;;;5450998;26;20002;-53
2024/04/14 12:23:36;;;;;;;7.45;2.10;;;;;;;;;;5456089;26;19999;-55
2024/04/14 12:26:01;;;;;;;7.57;1.65;;;;;;;;;;5444811;26;20002;-55
2024/04/14 12:28:27;;;;;;;7.65;2.22;;;;;;;;;;5440883;26;20027;-55
2024/04/14 12:30:52;;;;;;;6.53;1.98;;;;;;;;;;5423114;26;20420;-53
2024/04/14 12:33:17;;;;;;;7.10;2.28;;;;;;;;;;5424519;26;20295;-54
2024/04/14 12:35:42;;;;;;;7.32;2.30;;;;;;;;;;5455845;26;20311;-54
2024/04/14 12:38:09;;;;;;;8.05;2.30;;;;;;;;;;5449580;26;20014;-58
2024/04/14 12:40:35;;;;;;;5.50;1.83;;;;;;;;;;5455486;26;20031;-56
2024/04/14 12:43:00;;;;;;;6.95;2.15;;;;;;;;;;5455961;26;20007;-52
2024/04/14 12:45:26;;;;;;;8.27;2.22;;;;;;;;;;5442457;26;20013;-56
2024/04/14 12:47:51;;;;;;;10.98;3.08;;;;;;;;;;5420148;26;19998;-53
2024/04/14 12:50:18;;;;;;;7.40;2.10;;;;;;;;;;5444612;26;20075;-54
2024/04/14 12:52:44;;;;;;;7.70;1.80;;;;;;;;;;5456011;26;19999;-55
2024/04/14 12:55:10;;;;;;;7.22;2.33;;;;;;;;;;5448810;26;20011;-52
2024/04/14 12:57:35;;;;;;;8.80;2.78;;;;;;;;;;5439824;26;20003;-54
2024/04/14 13:00:00;;;;;;;9.75;2.70;;;;;;;;;;5447631;26;20071;-53
2024/04/14 13:02:25;;;;;;;7.70;2.30;;;;;;;;;;5450183;26;20002;-51
2024/04/14 13:04:51;;;;;;;7.65;2.30;;;;;;;;;;5431371;26;20300;-54
2024/04/14 13:07:16;;;;;;;6.95;2.33;;;;;;;;;;5390738;26;20123;-53
2024/04/14 13:09:41;;;;;;;7.38;1.85;;;;;;;;;;5432871;26;20035;-54
2024/04/14 13:12:06;;;;;;;7.80;2.30;;;;;;;;;;5434208;26;19999;-52
2024/04/14 13:14:31;;;;;;;6.13;2.00;;;;;;;;;;5457957;26;20006;-53
2024/04/14 13:16:57;;;;;;;7.13;2.47;;;;;;;;;;5458728;26;20466;-56
2024/04/14 13:19:22;;;;;;;7.47;2.20;;;;;;;;;;5452535;26;20002;-53
2024/04/14 13:21:47;;;;;;;8.43;2.17;;;;;;;;;;5445889;26;20052;-54
2024/04/14 13:24:12;;;;;;;8.95;2.47;;;;;;;;;;5439689;26;19995;-52
2024/04/14 13:26:38;;;;;;;6.97;2.50;;;;;;;;;;5423311;26;20074;-54
2024/04/14 13:29:03;;;;;;;7.97;2.17;;;;;;;;;;5441483;26;20094;-54
2024/04/14 13:31:28;;;;;;;9.30;2.33;;;;;;;;;;5424567;26;19999;-55
2024/04/14 13:33:53;;;;;;;9.43;2.40;;;;;;;;;;5458771;26;19986;-55
2024/04/14 13:36:18;;;;;;;9.93;2.67;;;;;;;;;;5449324;26;19995;-54
2024/04/14 13:38:43;;;;;;;7.45;2.10;;;;;;;;;;5429393;26;20304;-52
2024/04/14 13:41:09;;;;;;;8.07;2.35;;;;;;;;;;5458552;26;20296;-53
2024/04/14 13:43:34;;;;;;;6.75;2.17;;;;;;;;;;5458578;26;20384;-53
2024/04/14 13:45:59;;;;;;;8.02;2.80;;;;;;;;;;5457649;26;20006;-52
2024/04/14 13:48:25;;;;;;;8.10;2.40;;;;;;;;;;5458380;26;19990;-54
2024/04/14 13:50:50;;;;;;;6.07;2.17;;;;;;;;;;5458476;26;20016;-54
2024/04/14 13:53:15;;;;;;;9.65;2.38;;;;;;;;;;5458918;26;20068;-54
2024/04/14 13:55:40;;;;;;;6.10;2.25;;;;;;;;;;5429948;26;20296;-52
2024/04/14 13:58:05;;;;;;;9.80;2.75;;;;;;;;;;5447402;26;20069;-53
2024/04/14 14:00:33;;;;;;;7.32;2.25;;;;;;;;;;5457647;26;19999;-53
2024/04/14 14:02:58;;;;;;;11.77;2.95;;;;;;;;;;5457489;26;20011;-54
2024/04/14 14:05:23;;;;;;;8.77;2.30;;;;;;;;;;5434459;26;20015;-53
2024/04/14 14:07:48;;;;;;;7.30;2.50;;;;;;;;;;5422035;26;19993;-54
2024/04/14 14:10:14;;;;;;;9.32;2.72;;;;;;;;;;5422262;26;20065;-50
2024/04/14 14:12:39;;;;;;;12.32;3.13;;;;;;;;;;5444480;26;19994;-52
2024/04/14 14:15:04;;;;;;;7.80;2.13;;;;;;;;;;5458139;26;19995;-55
2024/04/14 14:17:30;;;;;;;8.93;2.40;;;;;;;;;;5456103;26;19991;-53
2024/04/14 14:19:56;;;;;;;8.63;2.53;;;;;;;;;;5457908;26;20022;-52
2024/04/14 14:22:21;;;;;;;10.52;2.22;;;;;;;;;;5458315;26;20006;-54
2024/04/14 14:24:47;;;;;;;6.25;2.03;;;;;;;;;;5446224;26;20003;-50
2024/04/14 14:27:12;;;;;;;8.98;2.10;;;;;;;;;;5434154;26;20330;-52